Time;durP1;ratioP1;P1;durP2;ratioP2;P2;SDS_P1;SDS_P2;PMS_P1;PMS_P2;Temp;Humidity;BMP_temperature;BMP_pressure;BME280_temperature;BME280_humidity;BME280_pressure;Samples;Min_cycle;Max_cycle;Signal;HPM_P1;HPM_P2
2021/09/03 00:00:52;;;;;;;0.28;0.28;;;;;;;16.17;62.76;97203.19;6245771;23;20016;-61
2021/09/03 00:03:18;;;;;;;0.28;0.28;;;;;;;16.19;62.58;97209.22;6246256;23;20463;-60
2021/09/03 00:05:44;;;;;;;0.40;0.25;;;;;;;16.18;62.69;97213.94;6218669;23;20445;-60
2021/09/03 00:08:10;;;;;;;0.20;0.20;;;;;;;16.17;62.60;97205.94;6245421;23;20007;-61
2021/09/03 00:10:35;;;;;;;0.40;0.40;;;;;;;16.16;62.84;97196.00;6245612;23;20008;-61
2021/09/03 00:13:01;;;;;;;0.20;0.20;;;;;;;16.13;62.62;97182.78;6245606;23;20334;-60
2021/09/03 00:15:27;;;;;;;0.32;0.32;;;;;;;16.11;63.11;97180.31;6245564;23;20074;-61
2021/09/03 00:17:53;;;;;;;0.25;0.25;;;;;;;16.13;62.89;97174.47;6245750;23;20075;-61
2021/09/03 00:20:18;;;;;;;0.32;0.30;;;;;;;16.14;62.98;97179.69;6245279;23;20016;-61
2021/09/03 00:22:45;;;;;;;1.02;0.55;;;;;;;16.17;62.80;97161.63;6245513;23;20008;-61
2021/09/03 00:25:12;;;;;;;1.10;0.93;;;;;;;16.21;62.55;97168.16;6245236;23;20012;-61
2021/09/03 00:27:38;;;;;;;0.57;0.57;;;;;;;16.24;62.56;97162.84;6245818;23;20359;-62
2021/09/03 00:30:05;;;;;;;0.10;0.10;;;;;;;16.28;62.37;97165.78;6244845;23;20039;-61
2021/09/03 00:32:31;;;;;;;2.28;0.47;;;;;;;16.32;62.21;97161.28;6245612;23;20317;-61
2021/09/03 00:34:56;;;;;;;0.30;0.30;;;;;;;16.36;62.35;97159.53;6245679;23;20019;-60
2021/09/03 00:37:22;;;;;;;0.22;0.22;;;;;;;16.37;62.02;97152.84;6245388;23;20066;-61
2021/09/03 00:39:48;;;;;;;0.52;0.30;;;;;;;16.38;62.08;97146.16;6245436;23;20022;-61
2021/09/03 00:42:15;;;;;;;0.40;0.40;;;;;;;16.37;62.21;97130.69;6245309;23;20019;-62
2021/09/03 00:44:41;;;;;;;0.88;0.30;;;;;;;16.39;62.05;97131.19;6245358;23;20034;-62
2021/09/03 00:47:07;;;;;;;0.25;0.25;;;;;;;16.40;62.03;97126.47;6245518;23;20396;-62
2021/09/03 00:49:33;;;;;;;0.52;0.52;;;;;;;16.39;62.24;97111.00;6245342;23;20008;-61
2021/09/03 00:52:03;;;;;;;0.43;0.43;;;;;;;16.38;62.20;97109.34;6244960;23;20007;-62
2021/09/03 00:54:29;;;;;;;0.70;0.40;;;;;;;16.37;62.07;97111.31;6245197;23;20471;-62
2021/09/03 00:56:55;;;;;;;0.20;0.20;;;;;;;16.37;62.09;97116.84;6245408;23;20057;-62
2021/09/03 00:59:20;;;;;;;0.70;0.35;;;;;;;16.38;62.26;97121.22;6244467;23;20031;-62
2021/09/03 01:01:46;;;;;;;0.40;0.35;;;;;;;16.39;62.16;97119.31;6245276;23;20008;-61
2021/09/03 01:04:12;;;;;;;0.63;0.30;;;;;;;16.39;62.12;97127.63;6245751;23;20012;-63
2021/09/03 01:06:38;;;;;;;0.32;0.32;;;;;;;16.37;62.13;97125.16;6245286;23;20023;-63
2021/09/03 01:09:03;;;;;;;1.95;0.22;;;;;;;16.36;62.20;97126.28;6244584;23;20058;-62
2021/09/03 01:11:29;;;;;;;0.38;0.30;;;;;;;16.35;61.96;97135.72;6245274;23;20090;-63
2021/09/03 01:13:55;;;;;;;0.17;0.17;;;;;;;16.34;62.36;97134.09;6245177;23;20034;-61
2021/09/03 01:16:21;;;;;;;0.43;0.43;;;;;;;16.34;62.28;97134.09;6245073;23;20023;-62
2021/09/03 01:18:46;;;;;;;0.30;0.30;;;;;;;16.32;62.16;97136.34;6245136;23;20019;-62
2021/09/03 01:21:12;;;;;;;0.60;0.60;;;;;;;16.29;62.29;97132.25;6245199;23;20016;-62
2021/09/03 01:23:38;;;;;;;1.08;0.55;;;;;;;16.26;62.53;97132.88;6244885;23;20031;-61
2021/09/03 01:26:05;;;;;;;0.30;0.30;;;;;;;16.23;62.48;97129.94;6244780;23;20511;-61
2021/09/03 01:28:32;;;;;;;0.30;0.30;;;;;;;16.22;62.74;97131.03;6244364;23;20441;-61
2021/09/03 01:30:57;;;;;;;0.40;0.40;;;;;;;16.21;62.65;97126.63;6244788;23;20020;-62
2021/09/03 01:33:23;;;;;;;1.85;0.68;;;;;;;16.19;62.73;97123.38;6244928;23;20109;-60
2021/09/03 01:35:49;;;;;;;0.85;0.40;;;;;;;16.20;62.84;97130.56;6244496;23;20027;-61
2021/09/03 01:38:15;;;;;;;0.22;0.22;;;;;;;16.18;62.57;97130.03;6244952;23;20012;-62
2021/09/03 01:40:42;;;;;;;2.35;0.75;;;;;;;16.18;62.70;97127.25;6244990;23;20018;-61
2021/09/03 01:43:08;;;;;;;0.73;0.73;;;;;;;16.16;62.79;97135.88;6244752;23;20490;-60
2021/09/03 01:45:34;;;;;;;0.70;0.28;;;;;;;16.15;62.83;97139.81;6244807;23;20008;-61
2021/09/03 01:47:59;;;;;;;0.35;0.32;;;;;;;16.15;62.61;97130.66;6244632;23;20020;-61
2021/09/03 01:50:25;;;;;;;2.08;0.82;;;;;;;16.15;62.72;97131.50;6244653;23;20445;-62
2021/09/03 01:52:51;;;;;;;0.40;0.40;;;;;;;16.15;62.79;97137.03;6244830;23;20130;-62
2021/09/03 01:55:16;;;;;;;0.50;0.40;;;;;;;16.17;62.72;97128.41;6244639;23;20024;-62
2021/09/03 01:57:42;;;;;;;0.20;0.20;;;;;;;16.14;62.81;97113.25;6244845;23;20087;-63
2021/09/03 02:00:09;;;;;;;0.30;0.30;;;;;;;16.20;62.58;97106.44;6243904;23;20055;-61
2021/09/03 02:02:34;;;;;;;0.30;0.30;;;;;;;16.22;62.58;97108.91;6192865;23;20465;-61
2021/09/03 02:05:00;;;;;;;0.30;0.30;;;;;;;16.24;62.58;97107.47;6244773;23;20083;-60
2021/09/03 02:07:26;;;;;;;0.20;0.20;;;;;;;16.27;62.65;97106.81;6244578;23;20019;-62
2021/09/03 02:09:51;;;;;;;0.30;0.30;;;;;;;16.27;62.49;97104.06;6244952;23;20345;-61
2021/09/03 02:12:17;;;;;;;0.80;0.80;;;;;;;16.27;62.44;97095.75;6244282;23;20095;-62
2021/09/03 02:14:44;;;;;;;0.25;0.25;;;;;;;16.29;62.52;97103.75;6244739;23;20477;-62
2021/09/03 02:17:11;;;;;;;0.38;0.38;;;;;;;16.31;62.40;97111.72;6217940;23;20441;-62
2021/09/03 02:19:36;;;;;;;0.63;0.63;;;;;;;16.33;62.37;97101.97;6244404;23;20016;-62
2021/09/03 02:22:03;;;;;;;0.85;0.85;;;;;;;16.33;62.57;97096.44;6244776;23;20112;-61
2021/09/03 02:24:29;;;;;;;3.03;0.32;;;;;;;16.33;62.33;97104.75;6244742;23;20015;-62
2021/09/03 02:26:56;;;;;;;3.20;1.40;;;;;;;16.37;62.36;97102.16;6243175;23;20494;-63
2021/09/03 02:29:22;;;;;;;0.55;0.38;;;;;;;16.40;62.15;97105.13;6242594;23;20016;-63
2021/09/03 02:31:47;;;;;;;0.65;0.47;;;;;;;16.45;62.03;97098.66;6243450;23;20091;-62
2021/09/03 02:34:13;;;;;;;0.30;0.30;;;;;;;16.51;62.17;97099.34;6244373;23;20012;-62
2021/09/03 02:36:39;;;;;;;0.22;0.22;;;;;;;16.54;61.95;97099.50;6244423;23;20086;-62
2021/09/03 02:39:06;;;;;;;0.68;0.65;;;;;;;16.57;61.86;97106.38;6244358;23;20059;-61
2021/09/03 02:41:32;;;;;;;0.57;0.55;;;;;;;16.60;61.80;97103.78;6244095;23;20015;-62
2021/09/03 02:43:59;;;;;;;0.38;0.32;;;;;;;16.64;61.69;97112.31;6244671;23;20016;-63
2021/09/03 02:46:24;;;;;;;0.52;0.52;;;;;;;16.67;61.66;97108.91;6244836;23;20011;-63
2021/09/03 02:48:50;;;;;;;0.57;0.57;;;;;;;16.68;61.62;97118.84;6246288;23;20008;-63
2021/09/03 02:51:16;;;;;;;1.02;0.93;;;;;;;16.66;61.62;97111.97;6246608;23;20758;-63
2021/09/03 02:53:42;;;;;;;0.80;0.70;;;;;;;16.69;61.61;97134.31;6246618;23;20036;-62
2021/09/03 02:56:07;;;;;;;1.58;0.50;;;;;;;16.68;61.67;97127.16;6246232;23;20008;-61
2021/09/03 02:58:33;;;;;;;0.95;0.63;;;;;;;16.68;61.72;97129.09;6245791;23;20069;-62
2021/09/03 03:00:59;;;;;;;2.10;0.63;;;;;;;16.63;61.93;97136.41;6246457;23;20322;-63
2021/09/03 03:03:25;;;;;;;0.40;0.38;;;;;;;16.61;62.03;97130.38;6245542;23;20015;-61
2021/09/03 03:05:50;;;;;;;0.60;0.60;;;;;;;16.62;61.83;97122.88;6242845;23;20008;-62
2021/09/03 03:08:16;;;;;;;0.28;0.28;;;;;;;16.61;62.01;97127.59;6244267;23;20008;-61
2021/09/03 03:10:42;;;;;;;0.65;0.65;;;;;;;16.63;61.94;97132.81;6244061;23;20035;-64
2021/09/03 03:13:27;;;;;;;0.30;0.30;;;;;;;16.64;61.92;97131.69;6244397;23;20012;-62
2021/09/03 03:15:53;;;;;;;6.70;0.95;;;;;;;16.66;61.95;97123.88;6244959;23;20347;-63
2021/09/03 03:18:19;;;;;;;1.05;0.43;;;;;;;16.69;61.73;97126.00;6245044;23;20012;-63
2021/09/03 03:20:47;;;;;;;0.38;0.38;;;;;;;16.74;61.88;97119.50;6244558;23;20091;-62
2021/09/03 03:23:13;;;;;;;0.50;0.50;;;;;;;16.77;61.69;97119.72;6244866;23;20094;-62
2021/09/03 03:25:40;;;;;;;1.25;1.15;;;;;;;16.79;61.67;97116.63;6244386;23;20034;-62
2021/09/03 03:28:06;;;;;;;1.08;1.05;;;;;;;16.78;61.70;97101.13;6243975;23;20019;-63
2021/09/03 03:30:32;;;;;;;1.15;1.15;;;;;;;16.77;61.82;97097.53;6243503;23;20326;-63
2021/09/03 03:32:58;;;;;;;2.35;1.38;;;;;;;16.78;61.70;97093.66;6243108;23;20011;-62
2021/09/03 03:35:24;;;;;;;0.93;0.82;;;;;;;16.78;61.72;97082.56;6244022;23;20020;-61
2021/09/03 03:37:50;;;;;;;1.23;1.13;;;;;;;16.78;61.73;97077.00;6244228;23;20012;-63
2021/09/03 03:40:16;;;;;;;0.82;0.82;;;;;;;16.78;62.04;97077.00;6217241;23;20153;-62
2021/09/03 03:42:43;;;;;;;0.35;0.35;;;;;;;16.80;61.73;97068.38;6244428;23;20008;-61
2021/09/03 03:45:09;;;;;;;1.27;0.90;;;;;;;16.82;61.85;97072.44;6244315;23;20008;-61
2021/09/03 03:47:35;;;;;;;2.05;1.83;;;;;;;16.87;61.74;97073.44;6244166;23;20046;-61
2021/09/03 03:50:01;;;;;;;1.98;1.38;;;;;;;16.90;61.95;97067.31;6244351;23;20441;-61
2021/09/03 03:52:27;;;;;;;0.75;0.75;;;;;;;16.94;61.66;97074.66;6244228;23;20091;-63
2021/09/03 03:54:52;;;;;;;2.35;1.05;;;;;;;16.99;61.55;97074.53;6244351;23;20392;-63
2021/09/03 03:57:18;;;;;;;1.63;1.48;;;;;;;17.04;61.53;97070.00;6217550;23;20004;-65
2021/09/03 03:59:44;;;;;;;1.30;1.20;;;;;;;17.09;61.24;97072.59;6243802;23;20016;-63
2021/09/03 04:02:10;;;;;;;0.57;0.40;;;;;;;17.13;61.10;97070.84;6216885;23;20445;-63
2021/09/03 04:04:35;;;;;;;0.50;0.50;;;;;;;17.17;61.15;97072.63;6244220;23;20043;-63
2021/09/03 04:07:01;;;;;;;1.00;0.70;;;;;;;17.22;61.06;97068.09;6244292;23;20016;-62
2021/09/03 04:09:27;;;;;;;0.47;0.47;;;;;;;17.30;60.90;97056.22;6244014;23;20073;-62
2021/09/03 04:11:53;;;;;;;0.60;0.60;;;;;;;17.42;60.55;97072.25;6244133;23;20008;-65
2021/09/03 04:14:19;;;;;;;2.25;2.05;;;;;;;17.49;60.28;97055.91;6244099;23;20019;-64
2021/09/03 04:16:46;;;;;;;0.65;0.65;;;;;;;17.61;60.18;97058.09;6242924;23;20012;-66
2021/09/03 04:19:12;;;;;;;0.20;0.20;;;;;;;17.69;59.94;97054.50;6244303;23;20008;-67
2021/09/03 04:21:38;;;;;;;0.65;0.65;;;;;;;17.81;59.70;97051.88;6217312;23;20142;-66
2021/09/03 04:24:04;;;;;;;0.88;0.80;;;;;;;17.93;59.58;97058.78;6244838;23;20008;-66
2021/09/03 04:26:30;;;;;;;0.43;0.43;;;;;;;18.02;59.30;97056.81;6245584;23;20011;-66
2021/09/03 04:28:56;;;;;;;0.65;0.52;;;;;;;18.12;59.21;97045.38;6244531;23;20071;-63
2021/09/03 04:31:22;;;;;;;0.88;0.75;;;;;;;18.24;58.80;97052.25;6245273;23;20008;-67
2021/09/03 04:33:48;;;;;;;4.38;2.03;;;;;;;18.34;58.51;97060.25;6244919;23;20070;-63
2021/09/03 04:36:14;;;;;;;0.38;0.38;;;;;;;18.46;58.02;97046.50;6245355;23;20024;-66
2021/09/03 04:38:39;;;;;;;0.77;0.77;;;;;;;18.56;58.06;97043.38;6245063;23;20008;-66
2021/09/03 04:41:05;;;;;;;0.30;0.30;;;;;;;18.62;57.91;97044.00;6245102;23;20019;-63
2021/09/03 04:43:31;;;;;;;1.45;0.50;;;;;;;18.71;57.56;97046.75;6245033;23;20008;-64
2021/09/03 04:45:57;;;;;;;0.20;0.20;;;;;;;18.78;57.33;97038.72;6245256;23;20008;-67
2021/09/03 04:48:23;;;;;;;0.90;0.88;;;;;;;18.86;57.09;97050.97;6245249;23;20395;-62
2021/09/03 04:50:49;;;;;;;1.48;0.50;;;;;;;18.91;57.00;97048.84;6245069;23;20090;-62
2021/09/03 04:53:15;;;;;;;0.32;0.32;;;;;;;18.92;56.86;97035.78;6245259;23;20407;-63
2021/09/03 04:55:40;;;;;;;1.35;1.10;;;;;;;18.80;57.26;97021.72;6245107;23;20087;-66
2021/09/03 04:58:06;;;;;;;1.10;0.70;;;;;;;18.68;57.64;97027.97;6245448;23;20086;-63
2021/09/03 05:00:32;;;;;;;1.23;0.75;;;;;;;18.61;57.73;97024.88;6245080;23;20445;-64
2021/09/03 05:02:58;;;;;;;3.17;0.95;;;;;;;18.61;57.71;97033.22;6245107;23;20008;-67
2021/09/03 05:05:23;;;;;;;0.20;0.10;;;;;;;18.64;57.38;97027.81;6246000;23;20012;-65
2021/09/03 05:07:49;;;;;;;0.30;0.30;;;;;;;18.68;57.35;97019.63;6245073;23;20470;-63
2021/09/03 05:10:15;;;;;;;0.60;0.22;;;;;;;18.72;57.22;97007.50;6244988;23;20031;-62
2021/09/03 05:12:41;;;;;;;0.40;0.40;;;;;;;18.76;57.21;97031.84;6245049;23;20015;-65
2021/09/03 05:15:13;;;;;;;0.93;0.57;;;;;;;18.69;57.29;97015.69;6245126;23;20070;-64
2021/09/03 05:17:40;;;;;;;1.08;0.85;;;;;;;18.59;57.50;97002.16;6244882;23;20091;-61
2021/09/03 05:20:06;;;;;;;0.30;0.30;;;;;;;18.51;57.77;96989.94;6245154;23;20062;-67
2021/09/03 05:22:33;;;;;;;0.57;0.57;;;;;;;18.42;57.71;96987.19;6245140;23;20008;-62
2021/09/03 05:25:00;;;;;;;1.27;0.65;;;;;;;18.38;57.88;96980.63;6245014;23;20015;-63
2021/09/03 05:27:26;;;;;;;0.65;0.57;;;;;;;18.38;57.83;96975.09;6244855;23;20018;-62
2021/09/03 05:29:51;;;;;;;1.10;0.75;;;;;;;18.45;57.44;96975.41;6244890;23;20398;-65
2021/09/03 05:32:17;;;;;;;0.60;0.35;;;;;;;18.55;57.21;96958.38;6218455;23;20018;-60
2021/09/03 05:34:43;;;;;;;0.43;0.43;;;;;;;18.74;56.71;96951.56;6244800;23;20367;-60
2021/09/03 05:37:09;;;;;;;0.75;0.75;;;;;;;19.00;56.08;96939.53;6245374;23;20043;-62
2021/09/03 05:39:35;;;;;;;0.25;0.25;;;;;;;19.25;55.28;96929.41;6244855;23;20034;-64
2021/09/03 05:42:00;;;;;;;0.30;0.30;;;;;;;19.57;54.89;96924.25;6245037;23;20040;-63
2021/09/03 05:44:26;;;;;;;0.77;0.75;;;;;;;19.80;53.90;96924.72;6245138;23;20039;-63
2021/09/03 05:46:52;;;;;;;0.25;0.25;;;;;;;20.02;53.71;96923.53;6244676;23;20008;-63
2021/09/03 05:49:18;;;;;;;0.75;0.47;;;;;;;20.17;53.43;96922.09;6245174;23;20518;-62
2021/09/03 05:51:45;;;;;;;0.20;0.20;;;;;;;20.34;53.09;96917.47;6244959;23;20012;-61
2021/09/03 05:54:10;;;;;;;0.10;0.10;;;;;;;20.51;53.01;96928.41;6244892;23;20008;-63
2021/09/03 05:56:37;;;;;;;0.13;0.13;;;;;;;20.64;52.65;96926.44;6244937;23;20020;-64
2021/09/03 05:59:04;;;;;;;0.30;0.30;;;;;;;20.71;52.79;96925.91;6243687;23;20008;-62
2021/09/03 06:01:30;;;;;;;0.20;0.20;;;;;;;20.74;52.65;96937.16;6244719;23;20038;-63
2021/09/03 06:03:56;;;;;;;0.30;0.30;;;;;;;20.78;52.63;96935.31;6244995;23;20015;-62
2021/09/03 06:06:22;;;;;;;0.13;0.13;;;;;;;20.95;52.19;96928.72;6244860;23;20012;-61
2021/09/03 06:08:49;;;;;;;0.10;0.10;;;;;;;21.26;51.66;96924.50;6244873;23;20016;-62
2021/09/03 06:11:15;;;;;;;0.30;0.30;;;;;;;21.63;51.20;96921.63;6244604;23;20019;-62
2021/09/03 06:13:41;;;;;;;0.38;0.38;;;;;;;22.00;50.10;96909.50;6244542;23;20019;-63
2021/09/03 06:16:07;;;;;;;0.22;0.22;;;;;;;22.37;49.47;96910.13;6244595;23;20087;-63
2021/09/03 06:18:32;;;;;;;0.70;0.70;;;;;;;22.69;49.26;96898.16;6244777;23;20024;-62
2021/09/03 06:20:58;;;;;;;0.20;0.20;;;;;;;22.95;48.59;96900.38;6244466;23;20016;-63
2021/09/03 06:23:24;;;;;;;1.85;0.35;;;;;;;23.15;48.74;96903.28;6246773;23;20008;-63
2021/09/03 06:25:49;;;;;;;0.60;0.60;;;;;;;23.21;48.78;96902.63;6246823;23;20079;-64
2021/09/03 06:28:15;;;;;;;0.30;0.30;;;;;;;23.17;48.93;96912.09;6246076;23;20011;-64
2021/09/03 06:30:41;;;;;;;2.80;0.90;;;;;;;23.17;48.84;96901.72;6246752;23;20023;-63
2021/09/03 06:33:07;;;;;;;0.20;0.20;;;;;;;23.21;49.14;96899.81;6246560;23;20082;-63
2021/09/03 06:35:32;;;;;;;0.30;0.30;;;;;;;23.21;48.92;96918.59;6219833;23;20078;-64
2021/09/03 06:37:58;;;;;;;1.27;0.63;;;;;;;23.07;49.57;96903.06;6246601;23;20421;-64
2021/09/03 06:40:24;;;;;;;0.52;0.50;;;;;;;22.88;49.65;96917.81;6246471;23;20012;-65
2021/09/03 06:42:50;;;;;;;0.38;0.38;;;;;;;22.69;50.10;96915.75;6246503;23;20008;-63
2021/09/03 06:45:15;;;;;;;2.67;0.68;;;;;;;22.49;50.67;96925.22;6246579;23;20027;-64
2021/09/03 06:47:41;;;;;;;0.30;0.30;;;;;;;22.34;50.95;96908.06;6246905;23;20547;-62
2021/09/03 06:50:07;;;;;;;2.25;0.50;;;;;;;22.25;50.99;96915.78;6246899;23;20015;-63
2021/09/03 06:52:33;;;;;;;1.25;0.50;;;;;;;22.20;51.20;96921.63;6246581;23;20016;-62
2021/09/03 06:55:02;;;;;;;0.98;0.88;;;;;;;22.28;50.89;96923.44;6246498;23;20008;-64
2021/09/03 06:57:28;;;;;;;4.53;0.43;;;;;;;22.33;50.46;96923.19;6246834;23;20011;-63
2021/09/03 06:59:53;;;;;;;0.28;0.20;;;;;;;22.21;50.59;96920.44;6245580;23;20016;-63
2021/09/03 07:02:19;;;;;;;0.43;0.43;;;;;;;22.14;50.84;96920.25;6246541;23;20035;-62
2021/09/03 07:04:45;;;;;;;0.20;0.20;;;;;;;22.13;50.95;96921.41;6246372;23;20008;-64
2021/09/03 07:07:11;;;;;;;0.63;0.63;;;;;;;22.10;50.51;96928.56;6246649;23;20008;-63
2021/09/03 07:09:37;;;;;;;1.85;0.30;;;;;;;22.04;50.71;96927.19;6246113;23;20133;-62
2021/09/03 07:12:03;;;;;;;4.57;1.55;;;;;;;21.97;50.60;96925.00;6246356;23;20008;-63
2021/09/03 07:14:29;;;;;;;0.47;0.30;;;;;;;21.93;50.76;96937.25;6246337;23;20008;-61
2021/09/03 07:16:54;;;;;;;1.95;0.28;;;;;;;21.91;50.39;96932.00;6246317;23;20022;-62
2021/09/03 07:19:20;;;;;;;0.10;0.10;;;;;;;21.89;50.55;96925.94;6246444;23;20039;-62
2021/09/03 07:21:46;;;;;;;0.60;0.60;;;;;;;21.88;50.37;96915.97;6245923;23;20061;-63
2021/09/03 07:24:12;;;;;;;0.55;0.55;;;;;;;21.86;50.35;96927.50;6246245;23;20460;-62
2021/09/03 07:26:38;;;;;;;0.65;0.30;;;;;;;21.83;50.44;96924.59;6245994;23;20009;-62
2021/09/03 07:29:05;;;;;;;0.55;0.50;;;;;;;21.84;50.17;96913.06;6245687;23;20004;-62
2021/09/03 07:31:34;;;;;;;1.13;0.70;;;;;;;21.82;50.17;96906.19;6246206;23;20182;-62
2021/09/03 07:34:00;;;;;;;0.20;0.20;;;;;;;21.81;50.40;96908.19;6245607;23;20306;-62
2021/09/03 07:36:26;;;;;;;0.10;0.10;;;;;;;21.76;50.42;96907.63;6219105;23;20103;-63
2021/09/03 07:38:52;;;;;;;0.25;0.22;;;;;;;21.60;50.68;96911.19;6246086;23;20047;-62
2021/09/03 07:41:17;;;;;;;2.55;1.35;;;;;;;21.34;50.93;96892.81;6218783;23;20448;-61
2021/09/03 07:43:43;;;;;;;0.43;0.43;;;;;;;21.12;51.21;96884.97;6245755;23;20360;-62
2021/09/03 07:46:09;;;;;;;0.30;0.30;;;;;;;20.95;51.86;96875.69;6246020;23;20012;-63
2021/09/03 07:48:35;;;;;;;0.25;0.25;;;;;;;20.97;51.52;96873.38;6245703;23;20034;-62
2021/09/03 07:51:01;;;;;;;0.65;0.60;;;;;;;21.00;51.48;96864.28;6245845;23;20004;-62
2021/09/03 07:53:27;;;;;;;0.28;0.28;;;;;;;21.03;51.09;96882.31;6246048;23;20396;-63
2021/09/03 07:55:53;;;;;;;1.20;0.28;;;;;;;20.99;50.98;96865.47;6218835;23;20015;-63
2021/09/03 07:58:19;;;;;;;0.20;0.20;;;;;;;20.93;51.12;96871.63;6245373;23;20107;-63
2021/09/03 08:00:44;;;;;;;0.73;0.40;;;;;;;20.84;51.48;96866.19;6245606;23;20022;-62
2021/09/03 08:03:10;;;;;;;4.30;0.32;;;;;;;20.74;51.26;96861.06;6245767;23;20044;-63
2021/09/03 08:05:36;;;;;;;0.35;0.35;;;;;;;20.63;51.47;96857.91;6218975;23;20047;-61
2021/09/03 08:08:03;;;;;;;0.45;0.45;;;;;;;20.53;51.46;96861.16;6245722;23;20008;-62
2021/09/03 08:10:32;;;;;;;0.93;0.93;;;;;;;20.45;51.58;96874.88;6245667;23;20015;-64
2021/09/03 08:13:03;;;;;;;0.47;0.32;;;;;;;20.41;51.61;96887.88;6245611;23;20012;-63
2021/09/03 08:15:30;;;;;;;3.50;2.28;;;;;;;20.37;51.41;96886.13;6245898;23;20087;-62
2021/09/03 08:17:56;;;;;;;0.35;0.35;;;;;;;20.29;51.38;96894.22;6245120;23;20095;-63
2021/09/03 08:20:22;;;;;;;0.20;0.20;;;;;;;20.25;51.43;96898.06;6245588;23;20115;-63
2021/09/03 08:22:50;;;;;;;1.08;0.55;;;;;;;20.22;51.39;96893.19;6245396;23;20352;-64
2021/09/03 08:25:17;;;;;;;0.85;0.85;;;;;;;20.21;51.17;96895.13;6245564;23;20012;-63
2021/09/03 08:27:44;;;;;;;0.80;0.80;;;;;;;20.20;50.96;96923.34;6245738;23;20432;-63
2021/09/03 08:30:10;;;;;;;0.25;0.25;;;;;;;20.31;50.80;96905.84;6244098;23;20035;-62
2021/09/03 08:32:35;;;;;;;6.35;1.55;;;;;;;20.50;50.25;96910.06;6244028;23;20397;-63
2021/09/03 08:35:02;;;;;;;4.70;1.35;;;;;;;20.65;49.81;96909.34;6244005;23;20112;-64
2021/09/03 08:37:27;;;;;;;0.93;0.88;;;;;;;20.74;49.77;96911.25;6243696;23;20034;-64
2021/09/03 08:39:54;;;;;;;1.20;1.10;;;;;;;20.65;49.89;96914.94;6243586;23;20441;-63
2021/09/03 08:42:21;;;;;;;0.75;0.75;;;;;;;20.59;49.78;96910.75;6243792;23;20095;-62
2021/09/03 08:44:47;;;;;;;1.58;1.15;;;;;;;20.48;50.02;96918.78;6243818;23;20087;-61
2021/09/03 08:47:14;;;;;;;2.13;1.00;;;;;;;20.38;50.44;96913.66;6243672;23;20015;-64
2021/09/03 08:49:42;;;;;;;0.55;0.47;;;;;;;20.29;50.64;96901.78;6244420;23;20401;-63
2021/09/03 08:52:07;;;;;;;2.28;0.70;;;;;;;20.23;50.63;96917.91;6245155;23;20471;-63
2021/09/03 08:54:33;;;;;;;0.43;0.43;;;;;;;20.33;50.31;96910.25;6245330;23;20008;-61
2021/09/03 08:56:59;;;;;;;1.75;0.95;;;;;;;20.40;50.06;96897.38;6245989;23;20388;-62
2021/09/03 08:59:25;;;;;;;0.38;0.38;;;;;;;20.38;50.28;96899.72;6244679;23;20360;-62
2021/09/03 09:02:17;;;;;;;4.40;0.80;;;;;;;20.38;50.11;96879.41;6245153;23;20016;-61
2021/09/03 09:04:45;;;;;;;3.72;1.10;;;;;;;20.48;49.91;96878.94;6245199;23;20040;-62
2021/09/03 09:07:12;;;;;;;2.15;1.95;;;;;;;20.58;49.69;96877.66;6218691;23;20449;-63
2021/09/03 09:09:42;;;;;;;17.08;1.45;;;;;;;20.52;49.75;96868.69;6245063;23;20019;-63
2021/09/03 09:12:17;;;;;;;0.70;0.70;;;;;;;20.40;49.81;96857.56;6241985;23;20011;-61
2021/09/03 09:15:09;;;;;;;2.90;1.15;;;;;;;20.30;50.16;96868.00;6244281;23;20091;-62
2021/09/03 09:17:36;;;;;;;0.35;0.35;;;;;;;20.27;50.19;96885.41;6244406;23;20015;-64
2021/09/03 09:20:10;;;;;;;0.95;0.85;;;;;;;20.32;49.97;96870.44;6244633;23;20016;-62
2021/09/03 09:22:56;;;;;;;0.43;0.43;;;;;;;20.34;49.97;96879.25;6217912;23;20066;-62
2021/09/03 09:25:24;;;;;;;0.70;0.65;;;;;;;20.30;50.11;96890.28;6244636;23;20018;-63
2021/09/03 09:27:51;;;;;;;5.05;0.90;;;;;;;20.26;50.27;96871.84;6244173;23;20039;-64
2021/09/03 09:30:23;;;;;;;0.32;0.32;;;;;;;20.21;50.21;96864.47;6244880;23;20337;-62
2021/09/03 09:33:11;;;;;;;0.38;0.38;;;;;;;20.28;50.00;96867.50;6244659;23;20020;-62
2021/09/03 09:35:48;;;;;;;2.40;0.50;;;;;;;20.37;49.92;96859.06;6244717;23;20425;-62
2021/09/03 09:38:17;;;;;;;0.63;0.50;;;;;;;20.44;49.63;96839.78;6244836;23;20008;-62
2021/09/03 09:40:45;;;;;;;0.55;0.55;;;;;;;20.44;49.59;96836.19;6244586;23;20012;-62
2021/09/03 09:43:34;;;;;;;1.48;0.65;;;;;;;20.41;49.56;96846.06;6245270;23;20015;-62
2021/09/03 09:46:18;;;;;;;1.77;0.68;;;;;;;20.41;49.61;96831.31;6244657;23;20078;-62
2021/09/03 09:48:52;;;;;;;1.52;0.85;;;;;;;20.34;49.69;96825.50;6244575;23;20008;-61
2021/09/03 09:51:29;;;;;;;0.88;0.85;;;;;;;20.23;49.61;96833.47;6244661;23;20008;-62
2021/09/03 09:54:02;;;;;;;0.40;0.40;;;;;;;20.16;49.95;96834.06;6244359;23;20012;-63
2021/09/03 09:56:31;;;;;;;1.23;1.13;;;;;;;20.12;49.96;96828.34;6244511;23;20015;-61
2021/09/03 09:58:59;;;;;;;0.17;0.17;;;;;;;20.08;49.71;96821.03;6244015;23;20008;-62
2021/09/03 10:01:25;;;;;;;0.90;0.60;;;;;;;20.03;49.75;96824.06;6244446;23;20445;-62
2021/09/03 10:03:52;;;;;;;0.38;0.38;;;;;;;20.03;49.71;96819.31;6217857;23;20107;-64
2021/09/03 10:06:20;;;;;;;1.75;0.40;;;;;;;20.03;49.90;96804.56;6244773;23;20066;-62
2021/09/03 10:08:48;;;;;;;0.70;0.45;;;;;;;20.03;49.98;96802.59;6244685;23;20008;-62
2021/09/03 10:11:19;;;;;;;0.43;0.43;;;;;;;20.10;49.91;96797.25;6244680;23;20011;-64
2021/09/03 10:13:46;;;;;;;0.10;0.10;;;;;;;20.19;49.55;96805.50;6244320;23;20012;-61
2021/09/03 10:16:13;;;;;;;0.20;0.20;;;;;;;20.33;49.20;96810.72;6244168;23;20012;-63
2021/09/03 10:18:41;;;;;;;0.35;0.35;;;;;;;20.46;49.13;96814.34;6243317;23;20012;-64
2021/09/03 10:21:08;;;;;;;0.15;0.15;;;;;;;20.61;48.85;96821.19;6240323;23;20072;-63
2021/09/03 10:23:55;;;;;;;1.27;0.45;;;;;;;20.75;48.48;96813.31;6240358;23;20019;-62
2021/09/03 10:26:22;;;;;;;0.20;0.20;;;;;;;20.81;48.28;96800.75;6241365;23;20012;-63
2021/09/03 10:28:48;;;;;;;0.47;0.43;;;;;;;20.85;48.50;96798.06;6241187;23;20086;-62
2021/09/03 10:31:19;;;;;;;0.10;0.10;;;;;;;20.87;48.33;96790.16;6214770;23;20039;-63
2021/09/03 10:33:47;;;;;;;0.30;0.30;;;;;;;20.90;48.42;96785.84;6242183;23;20082;-65
2021/09/03 10:36:13;;;;;;;2.35;0.30;;;;;;;20.89;48.23;96792.59;6214730;23;20027;-63
2021/09/03 10:38:43;;;;;;;0.35;0.35;;;;;;;20.81;48.66;96784.00;6241903;23;20091;-62
2021/09/03 10:41:09;;;;;;;0.10;0.10;;;;;;;20.75;49.00;96781.81;6241461;23;20016;-64
2021/09/03 10:43:45;;;;;;;0.20;0.20;;;;;;;20.69;48.87;96760.94;6241894;23;20441;-63
2021/09/03 10:46:14;;;;;;;0.20;0.20;;;;;;;20.62;49.07;96762.28;6241849;23;20008;-63
2021/09/03 10:48:48;;;;;;;0.20;0.20;;;;;;;20.61;49.01;96754.25;6242032;23;20028;-62
2021/09/03 10:51:33;;;;;;;0.85;0.55;;;;;;;20.58;49.22;96747.44;6243042;23;20275;-63
2021/09/03 10:53:59;;;;;;;1.05;0.88;;;;;;;20.53;49.19;96755.22;6243045;23;20012;-62
2021/09/03 10:56:27;;;;;;;0.10;0.10;;;;;;;20.47;49.29;96752.66;6242786;23;20421;-64
2021/09/03 10:59:03;;;;;;;0.40;0.40;;;;;;;20.41;49.32;96754.06;6242337;23;20012;-62
2021/09/03 11:01:30;;;;;;;0.32;0.32;;;;;;;20.31;49.68;96741.41;6242410;23;20016;-61
2021/09/03 11:04:25;;;;;;;0.47;0.47;;;;;;;20.23;49.56;96761.88;6242804;23;20008;-63
2021/09/03 11:06:55;;;;;;;0.68;0.22;;;;;;;20.13;49.83;96756.75;6229559;23;20016;-62
2021/09/03 11:09:25;;;;;;;0.57;0.40;;;;;;;20.07;49.97;96741.44;6243638;23;20063;-63
2021/09/03 11:11:54;;;;;;;0.15;0.15;;;;;;;20.06;49.96;96731.44;6244045;23;20429;-64
2021/09/03 11:14:26;;;;;;;2.35;0.93;;;;;;;20.08;49.77;96734.69;6244203;23;20148;-63
2021/09/03 11:16:56;;;;;;;0.20;0.20;;;;;;;20.08;49.80;96737.47;6244589;23;20011;-62
2021/09/03 11:19:44;;;;;;;0.60;0.60;;;;;;;20.08;49.35;96721.59;6244211;23;20091;-63
2021/09/03 11:22:12;;;;;;;2.95;0.60;;;;;;;20.09;49.63;96730.75;6242557;23;20008;-64
2021/09/03 11:24:42;;;;;;;1.88;0.38;;;;;;;20.06;49.78;96711.94;6242912;23;20023;-63
2021/09/03 11:27:11;;;;;;;0.77;0.77;;;;;;;20.03;49.98;96716.25;6243078;23;20012;-63
2021/09/03 11:29:43;;;;;;;5.72;1.02;;;;;;;19.99;49.96;96714.50;6242653;23;20404;-64
2021/09/03 11:32:14;;;;;;;0.95;0.95;;;;;;;19.94;49.96;96698.84;6242926;23;20680;-63
2021/09/03 11:34:52;;;;;;;1.25;1.05;;;;;;;19.89;50.03;96680.38;6242541;23;20452;-63